createdAt,value
2022-12-18T00:03:00.583Z,101657.84
2022-12-18T00:06:03.191Z,101664.31
2022-12-18T00:09:05.341Z,101660.78
2022-12-18T00:15:17.874Z,101683.22
2022-12-18T00:18:20.738Z,101680.53
2022-12-18T00:21:23.010Z,101694.03
2022-12-18T00:24:25.071Z,101695.06
2022-12-18T00:27:27.190Z,101706.47
2022-12-18T00:30:29.378Z,101705.88
2022-12-18T00:33:31.604Z,101716.69
2022-12-18T00:36:35.145Z,101709.19
2022-12-18T00:39:37.287Z,101706.47
2022-12-18T00:42:57.388Z,101712.72
2022-12-18T00:45:59.531Z,101720.00
2022-12-18T00:49:01.783Z,101720.00
2022-12-18T00:52:03.916Z,101725.38
2022-12-18T00:55:06.758Z,101722.69
2022-12-18T00:58:10.031Z,101722.69
2022-12-18T01:01:12.210Z,101730.78
2022-12-18T01:04:14.502Z,101739.72
2022-12-18T01:07:16.578Z,101755.13
2022-12-18T01:10:19.841Z,101760.53
2022-12-18T01:13:21.964Z,101764.06
2022-12-18T01:16:26.164Z,101758.66
2022-12-18T01:19:28.264Z,101757.81
2022-12-18T01:22:30.573Z,101763.47
2022-12-18T01:25:32.761Z,101763.22
2022-12-18T01:28:34.881Z,101765.34
2022-12-18T01:31:37.925Z,101768.88
2022-12-18T01:34:40.096Z,101772.41
2022-12-18T01:37:42.211Z,101767.00
2022-12-18T01:40:44.457Z,101777.56
2022-12-18T01:43:56.051Z,101776.75
2022-12-18T01:46:58.130Z,101779.44
2022-12-18T01:50:04.262Z,101792.94
2022-12-18T01:53:16.169Z,101794.03
2022-12-18T01:56:21.041Z,101796.50
2022-12-18T01:59:24.827Z,101794.03
2022-12-18T02:02:27.810Z,101799.44
2022-12-18T02:05:47.423Z,101795.66
2022-12-18T02:09:21.948Z,101797.56
2022-12-18T02:12:26.499Z,101804.59
2022-12-18T02:15:37.525Z,101809.41
2022-12-18T02:18:42.728Z,101820.81
2022-12-18T02:21:55.385Z,101815.88
2022-12-18T02:25:20.477Z,101832.44
2022-12-18T02:28:27.350Z,101819.19
2022-12-18T02:31:36.951Z,101830.78
2022-12-18T02:34:40.844Z,101834.31
2022-12-18T02:37:48.069Z,101834.31
2022-12-18T02:40:51.087Z,101840.56
2022-12-18T02:44:00.118Z,101831.84
2022-12-18T02:47:03.534Z,101838.91
2022-12-18T02:50:18.017Z,101842.44
2022-12-18T02:53:25.140Z,101841.59
2022-12-18T02:56:36.386Z,101853.25
2022-12-18T03:00:05.587Z,101854.75
2022-12-18T03:03:14.829Z,101852.28
2022-12-18T03:06:26.603Z,101858.88
2022-12-18T03:09:34.159Z,101861.00
2022-12-18T03:12:40.376Z,101872.41
2022-12-18T03:15:54.236Z,101860.16
2022-12-18T03:19:00.162Z,101872.41
2022-12-18T03:22:04.441Z,101868.03
2022-12-18T03:25:17.884Z,101875.09
2022-12-18T03:28:22.950Z,101884.84
2022-12-18T03:31:31.843Z,101889.19
2022-12-18T03:34:35.852Z,101895.06
2022-12-18T03:37:41.484Z,101901.06
2022-12-18T03:40:44.043Z,101901.88
2022-12-18T03:44:11.718Z,101909.16
2022-12-18T03:47:28.110Z,101909.16
2022-12-18T03:50:47.602Z,101914.56
2022-12-18T03:54:01.059Z,101908.56
2022-12-18T03:57:22.234Z,101909.16
2022-12-18T04:00:26.777Z,101909.16
2022-12-18T04:03:38.782Z,101907.53
2022-12-18T04:06:44.495Z,101909.16
2022-12-18T04:09:49.472Z,101922.66
2022-12-18T04:12:52.112Z,101916.69
2022-12-18T04:15:55.109Z,101924.56
2022-12-18T04:18:58.935Z,101920.81
2022-12-18T04:22:02.713Z,101922.66
2022-12-18T04:25:13.052Z,101929.16
2022-12-18T04:28:25.352Z,101930.78
2022-12-18T04:31:27.929Z,101928.06
2022-12-18T04:34:30.543Z,101930.78
2022-12-18T04:37:33.679Z,101931.84
2022-12-18T04:40:36.719Z,101939.97
2022-12-18T04:43:41.930Z,101950.78
2022-12-18T04:46:44.830Z,101955.34
2022-12-18T04:49:46.986Z,101957.81
2022-12-18T04:52:49.109Z,101965.91
2022-12-18T04:55:52.403Z,101971.31
2022-12-18T04:58:54.653Z,101984.84
2022-12-18T05:01:57.057Z,101974.03
2022-12-18T05:04:59.243Z,101976.97
2022-12-18T05:08:01.317Z,101973.44
2022-12-18T05:11:12.776Z,101985.91
2022-12-18T05:14:14.834Z,101996.72
2022-12-18T05:17:16.941Z,101988.59
2022-12-18T05:20:19.325Z,101986.94
2022-12-18T05:23:22.826Z,101984.22
2022-12-18T05:26:24.923Z,101990.47
2022-12-18T05:29:27.074Z,101999.41
2022-12-18T05:32:29.170Z,102007.75
2022-12-18T05:35:31.296Z,102010.22
2022-12-18T05:38:35.803Z,102006.69
2022-12-18T05:41:37.889Z,102018.34
2022-12-18T05:44:40.008Z,102019.38
2022-12-18T05:47:42.152Z,102021.25
2022-12-18T05:50:46.496Z,102023.72
2022-12-18T05:53:49.244Z,102028.31
2022-12-18T05:56:51.480Z,102029.56
2022-12-18T05:59:53.611Z,102036.41
2022-12-18T06:02:55.926Z,102031.84
2022-12-18T06:05:58.091Z,102035.38
2022-12-18T06:09:00.166Z,102033.94
2022-12-18T06:12:02.239Z,102041.00
2022-12-18T06:15:05.016Z,102041.00
2022-12-18T06:18:07.083Z,102041.59
2022-12-18T06:21:09.224Z,102045.13
2022-12-18T06:24:11.395Z,102055.09
2022-12-18T06:27:13.839Z,102065.91
2022-12-18T06:30:16.193Z,102065.91
2022-12-18T06:33:18.340Z,102070.50
2022-12-18T06:36:21.645Z,102082.13
2022-12-18T06:39:23.743Z,102075.91
2022-12-18T06:42:26.202Z,102094.59
2022-12-18T06:45:28.396Z,102102.94
2022-12-18T06:48:31.131Z,102099.19
2022-12-18T06:51:33.277Z,102102.72
2022-12-18T06:54:35.500Z,102104.56
2022-12-18T06:57:38.278Z,102110.81
2022-12-18T07:00:40.471Z,102113.53
2022-12-18T07:03:44.011Z,102117.03
2022-12-18T07:06:46.755Z,102125.97
2022-12-18T07:09:50.772Z,102117.84
2022-12-18T07:12:53.011Z,102127.84
2022-12-18T07:15:55.207Z,102132.22
2022-12-18T07:18:57.525Z,102135.75
2022-12-18T07:21:59.654Z,102141.16
2022-12-18T07:25:01.779Z,102148.19
2022-12-18T07:28:04.954Z,102152.56
2022-12-18T07:31:12.225Z,102157.97
2022-12-18T07:34:15.631Z,102172.28
2022-12-18T07:37:18.954Z,102178.75
2022-12-18T07:40:21.100Z,102173.34
2022-12-18T07:43:23.175Z,102171.91
2022-12-18T07:46:25.442Z,102174.19
2022-12-18T07:49:27.561Z,102176.06
2022-12-18T07:52:29.623Z,102188.72
2022-12-18T07:55:51.823Z,102192.88
2022-12-18T07:58:55.255Z,102198.50
2022-12-18T08:01:57.586Z,102212.63
2022-12-18T08:04:59.780Z,102216.38
2022-12-18T08:08:01.924Z,102220.75
2022-12-18T08:11:04.068Z,102220.94
2022-12-18T08:14:06.164Z,102226.94
2022-12-18T08:17:08.292Z,102229.66
2022-12-18T08:20:10.764Z,102225.31
2022-12-18T08:23:12.935Z,102226.94
2022-12-18T08:26:15.069Z,102231.56
2022-12-18T08:29:21.452Z,102227.78
2022-12-18T08:32:24.461Z,102234.84
2022-12-18T08:35:29.524Z,102239.44
2022-12-18T08:38:34.086Z,102242.97
2022-12-18T08:41:36.258Z,102239.44
2022-12-18T08:44:38.407Z,102235.88
2022-12-18T08:47:40.597Z,102240.47
2022-12-18T08:50:42.732Z,102241.28
2022-12-18T08:53:48.242Z,102253.78
2022-12-18T08:56:50.659Z,102249.41
2022-12-18T08:59:52.790Z,102251.28
2022-12-18T09:02:55.012Z,102255.88
2022-12-18T09:05:57.430Z,102259.38
2022-12-18T09:08:59.724Z,102266.47
2022-12-18T09:12:02.396Z,102268.31
2022-12-18T09:15:05.128Z,102265.25
2022-12-18T09:18:07.240Z,102270.19
2022-12-18T09:21:20.396Z,102271.03
2022-12-18T09:24:22.561Z,102261.28
2022-12-18T09:27:24.654Z,102273.72
2022-12-18T09:30:27.322Z,102265.63
2022-12-18T09:33:29.452Z,102264.00
2022-12-18T09:36:31.779Z,102273.50
2022-12-18T09:39:36.634Z,102268.31
2022-12-18T09:42:38.754Z,102264.78
2022-12-18T09:45:47.032Z,102268.94
2022-12-18T09:48:51.705Z,102259.19
2022-12-18T09:52:01.533Z,102273.50
2022-12-18T09:55:35.185Z,102278.72
2022-12-18T09:58:45.196Z,102267.06
2022-12-18T10:01:47.393Z,102267.06
2022-12-18T10:05:06.262Z,102266.22
2022-12-18T10:08:20.447Z,102262.50
2022-12-18T10:11:40.930Z,102263.28
2022-12-18T10:15:15.546Z,102258.34
2022-12-18T10:18:23.404Z,102271.19
2022-12-18T10:21:56.041Z,102265.78
2022-12-18T10:25:03.079Z,102254.97
2022-12-18T10:28:12.648Z,102254.97
2022-12-18T10:31:20.966Z,102261.19
2022-12-18T10:34:26.750Z,102244.16
2022-12-18T10:37:30.351Z,102256.63
2022-12-18T10:40:33.016Z,102252.84
2022-12-18T10:43:37.154Z,102243.72
2022-12-18T10:46:39.725Z,102257.00
2022-12-18T10:49:49.436Z,102257.22
2022-12-18T10:53:00.105Z,102249.50
2022-12-18T10:56:04.111Z,102251.16
2022-12-18T10:59:08.779Z,102257.16
2022-12-18T11:02:27.821Z,102256.94
2022-12-18T11:05:32.538Z,102253.16
2022-12-18T11:08:35.041Z,102251.91
2022-12-18T11:11:38.279Z,102247.53
2022-12-18T11:14:48.767Z,102242.28
2022-12-18T11:17:51.979Z,102241.03
2022-12-18T11:20:58.974Z,102237.63
2022-12-18T11:24:01.217Z,102233.66
2022-12-18T11:27:05.618Z,102243.81
2022-12-18T11:30:27.664Z,102230.88
2022-12-18T11:33:29.876Z,102239.97
2022-12-18T11:36:42.306Z,102234.09
2022-12-18T11:39:51.256Z,102225.53
2022-12-18T11:43:03.467Z,102224.00
2022-12-18T11:46:13.528Z,102228.72
2022-12-18T11:49:26.648Z,102234.28
2022-12-18T11:52:38.190Z,102232.59
2022-12-18T11:56:00.077Z,102222.13
2022-12-18T11:59:26.750Z,102216.00
2022-12-18T12:02:43.901Z,102218.03
2022-12-18T12:05:51.920Z,102206.53
2022-12-18T12:09:08.763Z,102208.50
2022-12-18T12:12:26.035Z,102206.78
2022-12-18T12:15:55.925Z,102213.38
2022-12-18T12:19:33.774Z,102212.44
2022-12-18T12:23:16.475Z,102195.41
2022-12-18T12:26:31.238Z,102203.41
2022-12-18T12:29:57.727Z,102204.59
2022-12-18T12:33:09.266Z,102209.31
2022-12-18T12:36:42.133Z,102213.22
2022-12-18T12:39:48.409Z,102214.41
2022-12-18T12:43:23.505Z,102214.16
2022-12-18T12:46:27.076Z,102217.56
2022-12-18T12:49:36.320Z,102229.00
2022-12-18T12:52:46.490Z,102230.19
2022-12-18T12:55:48.737Z,102237.41
2022-12-18T12:59:23.176Z,102242.25
2022-12-18T13:02:45.628Z,102245.22
2022-12-18T13:06:02.000Z,102240.59
2022-12-18T13:09:05.917Z,102248.38
2022-12-18T13:12:30.516Z,102244.91
2022-12-18T13:15:48.334Z,102250.78
2022-12-18T13:18:55.437Z,102253.75
2022-12-18T13:25:30.492Z,102252.56
2022-12-18T13:28:47.897Z,102250.78
2022-12-18T13:31:49.979Z,102263.38
2022-12-18T13:35:23.163Z,102259.09
2022-12-18T13:38:32.178Z,102269.47
2022-12-18T13:41:34.961Z,102272.25
2022-12-18T13:44:43.155Z,102279.19
2022-12-18T13:47:45.456Z,102278.22
2022-12-18T13:51:02.131Z,102282.44
2022-12-18T13:54:31.541Z,102286.06
2022-12-18T13:57:36.346Z,102291.09
2022-12-18T14:00:44.187Z,102293.44
2022-12-18T14:03:48.044Z,102283.53
2022-12-18T14:06:53.865Z,102288.34
2022-12-18T14:13:29.235Z,102291.97
2022-12-18T14:16:32.734Z,102293.81
2022-12-18T14:19:35.245Z,102295.94
2022-12-18T14:22:37.681Z,102293.22
2022-12-18T14:25:39.852Z,102288.47
2022-12-18T14:28:45.310Z,102287.88
2022-12-18T14:31:49.822Z,102286.63
2022-12-18T14:34:55.001Z,102296.59
2022-12-18T14:38:23.257Z,102300.34
2022-12-18T14:41:26.896Z,102302.00
2022-12-18T14:44:39.078Z,102309.53
2022-12-18T14:47:51.209Z,102314.72
2022-12-18T14:51:01.707Z,102319.75
2022-12-18T14:54:09.196Z,102327.03
2022-12-18T14:57:26.018Z,102337.00
2022-12-18T15:00:28.108Z,102337.25
2022-12-18T15:03:30.180Z,102339.16
2022-12-18T15:06:35.650Z,102342.66
2022-12-18T15:09:38.952Z,102340.19
2022-12-18T15:12:43.418Z,102345.00
2022-12-18T15:15:46.077Z,102355.81
2022-12-18T15:18:48.968Z,102350.63
2022-12-18T15:21:51.118Z,102360.63
2022-12-18T15:24:53.787Z,102358.16
2022-12-18T15:27:56.028Z,102361.69
2022-12-18T15:31:01.917Z,102370.00
2022-12-18T15:34:21.794Z,102371.06
2022-12-18T15:37:23.877Z,102362.56
2022-12-18T15:40:26.091Z,102382.13
2022-12-18T15:43:37.914Z,102389.41
2022-12-18T15:46:40.351Z,102386.09
2022-12-18T15:49:42.761Z,102391.50
2022-12-18T15:52:46.866Z,102403.16
2022-12-18T15:56:07.602Z,102411.50
2022-12-18T15:59:28.511Z,102413.38
2022-12-18T16:02:31.347Z,102421.47
2022-12-18T16:05:33.769Z,102422.75
2022-12-18T16:08:36.090Z,102415.47
2022-12-18T16:11:39.383Z,102419.19
2022-12-18T16:14:41.506Z,102418.41
2022-12-18T16:17:44.863Z,102424.59
2022-12-18T16:20:49.481Z,102420.25
2022-12-18T16:23:51.881Z,102428.38
2022-12-18T16:26:55.159Z,102432.13
2022-12-18T16:29:57.343Z,102440.03
2022-12-18T16:32:59.645Z,102439.19
2022-12-18T16:36:01.740Z,102445.63
2022-12-18T16:39:04.699Z,102447.31
2022-12-18T16:42:20.690Z,102457.28
2022-12-18T16:45:23.114Z,102450.25
2022-12-18T16:48:25.246Z,102460.22
2022-12-18T16:51:28.247Z,102459.38
2022-12-18T16:54:30.583Z,102466.66
2022-12-18T16:57:32.803Z,102459.38
2022-12-18T17:00:34.935Z,102453.97
2022-12-18T17:03:37.302Z,102454.81
2022-12-18T17:06:42.395Z,102453.16
2022-12-18T17:09:44.479Z,102450.44
2022-12-18T17:12:46.797Z,102445.88
2022-12-18T17:15:49.262Z,102446.31
2022-12-18T17:18:52.724Z,102439.03
2022-12-18T17:21:55.124Z,102443.38
2022-12-18T17:24:57.264Z,102440.91
2022-12-18T17:27:59.323Z,102447.97
2022-12-18T17:31:01.527Z,102443.84
2022-12-18T17:34:03.872Z,102451.72
2022-12-18T17:37:05.987Z,102455.69
2022-12-18T17:40:08.627Z,102453.59
2022-12-18T17:43:11.745Z,102449.88
2022-12-18T17:46:14.834Z,102453.00
2022-12-18T17:49:17.022Z,102469.81
2022-12-18T17:52:19.152Z,102464.88
2022-12-18T17:55:21.278Z,102469.00
2022-12-18T17:58:23.777Z,102461.09
2022-12-18T18:01:26.546Z,102460.06
2022-12-18T18:04:28.906Z,102456.53
2022-12-18T18:07:31.045Z,102450.28
2022-12-18T18:10:38.186Z,102455.91
2022-12-18T18:13:58.949Z,102466.50
2022-12-18T18:17:04.408Z,102461.94
2022-12-18T18:20:07.770Z,102465.91
2022-12-18T18:23:09.801Z,102465.91
2022-12-18T18:26:14.744Z,102467.78
2022-12-18T18:29:22.512Z,102472.97
2022-12-18T18:32:24.962Z,102464.03
2022-12-18T18:35:52.987Z,102471.31
2022-12-18T18:38:49.659Z,102473.41
2022-12-18T18:41:52.008Z,102478.59
2022-12-18T18:44:54.139Z,102472.38
2022-12-18T18:47:56.408Z,102483.19
2022-12-18T18:51:03.763Z,102481.50
2022-12-18T18:54:05.843Z,102494.81
2022-12-18T18:57:30.088Z,102494.00
2022-12-18T19:00:32.428Z,102495.88
2022-12-18T19:03:35.851Z,102493.16
2022-12-18T19:06:38.069Z,102501.28
2022-12-18T19:09:40.795Z,102504.00
2022-12-18T19:13:01.507Z,102506.91
2022-12-18T19:16:11.236Z,102512.09
2022-12-18T19:19:14.165Z,102514.81
2022-12-18T19:22:16.669Z,102509.41
2022-12-18T19:25:19.967Z,102519.38
2022-12-18T19:28:26.364Z,102526.66
2022-12-18T19:31:34.841Z,102522.09
2022-12-18T19:34:37.925Z,102532.06
2022-12-18T19:37:40.250Z,102535.59
2022-12-18T19:40:43.758Z,102535.59
2022-12-18T19:43:47.403Z,102543.72
2022-12-18T19:46:52.573Z,102549.13
2022-12-18T19:49:54.802Z,102549.34
2022-12-18T19:52:57.240Z,102547.47
2022-12-18T19:55:59.323Z,102550.19
2022-12-18T19:59:02.652Z,102562.66
2022-12-18T20:02:04.866Z,102561.81
2022-12-18T20:05:10.537Z,102544.78
2022-12-18T20:08:12.612Z,102553.91
2022-12-18T20:11:15.101Z,102562.88
2022-12-18T20:14:23.131Z,102556.41
2022-12-18T20:17:25.838Z,102555.78
2022-12-18T20:20:28.817Z,102570.97
2022-12-18T20:23:32.202Z,102567.44
2022-12-18T20:26:35.841Z,102572.84
2022-12-18T20:29:38.131Z,102570.16
2022-12-18T20:32:40.270Z,102569.53
2022-12-18T20:35:42.660Z,102571.41
2022-12-18T20:38:44.966Z,102577.41
2022-12-18T20:41:47.657Z,102570.16
2022-12-18T20:44:49.786Z,102580.97
2022-12-18T20:47:56.739Z,102578.25
2022-12-18T20:51:06.815Z,102580.97
2022-12-18T20:54:11.798Z,102585.53
2022-12-18T20:57:14.459Z,102582.03
2022-12-18T21:00:16.789Z,102578.69
2022-12-18T21:03:23.389Z,102586.59
2022-12-18T21:06:25.538Z,102588.47
2022-12-18T21:09:27.646Z,102589.28
2022-12-18T21:12:44.912Z,102595.53
2022-12-18T21:15:59.374Z,102602.19
2022-12-18T21:19:01.487Z,102604.69
2022-12-18T21:22:04.092Z,102600.94
2022-12-18T21:25:06.738Z,102603.84
2022-12-18T21:28:08.851Z,102606.56
2022-12-18T21:31:11.172Z,102598.25
2022-12-18T21:34:17.194Z,102593.88
2022-12-18T21:37:19.419Z,102599.28
2022-12-18T21:40:21.503Z,102596.56
2022-12-18T21:43:42.248Z,102591.16
2022-12-18T21:46:55.668Z,102597.63
2022-12-18T21:49:58.974Z,102588.47
2022-12-18T21:53:01.044Z,102582.22
2022-12-18T21:56:03.278Z,102585.75
2022-12-18T21:59:05.441Z,102588.47
2022-12-18T22:02:11.253Z,102589.53
2022-12-18T22:05:16.325Z,102585.75
2022-12-18T22:08:18.388Z,102584.91
2022-12-18T22:11:20.700Z,102585.75
2022-12-18T22:14:24.763Z,102586.81
2022-12-18T22:17:26.905Z,102582.44
2022-12-18T22:20:30.012Z,102580.34
2022-12-18T22:23:33.377Z,102585.75
2022-12-18T22:26:40.109Z,102578.47
2022-12-18T22:30:01.231Z,102583.28
2022-12-18T22:33:03.806Z,102581.19
2022-12-18T22:36:06.893Z,102581.19
2022-12-18T22:39:15.019Z,102587.44
2022-12-18T22:42:17.132Z,102588.22
2022-12-18T22:45:19.776Z,102597.41
2022-12-18T22:48:21.933Z,102600.13
2022-12-18T22:51:24.044Z,102596.56
2022-12-18T22:54:26.152Z,102600.13
2022-12-18T22:57:28.544Z,102599.28
2022-12-18T23:00:30.687Z,102592.22
2022-12-18T23:03:34.806Z,102597.41
2022-12-18T23:06:36.940Z,102600.94
2022-12-18T23:09:39.280Z,102617.19
2022-12-18T23:12:41.382Z,102602.81
2022-12-18T23:15:43.700Z,102600.13
2022-12-18T23:18:46.165Z,102603.66
2022-12-18T23:21:48.240Z,102601.16
2022-12-18T23:24:50.385Z,102612.56
2022-12-18T23:27:52.605Z,102603.84
2022-12-18T23:30:56.884Z,102602.19
2022-12-18T23:34:00.659Z,102600.94
2022-12-18T23:37:03.707Z,102597.41
2022-12-18T23:40:06.777Z,102593.88
2022-12-18T23:43:08.862Z,102592.00
2022-12-18T23:46:20.446Z,102591.59
2022-12-18T23:49:22.825Z,102600.94
2022-12-18T23:52:24.961Z,102609.25
2022-12-18T23:55:27.083Z,102612.78
2022-12-18T23:58:29.580Z,102619.25
